Terminal Aerodrome Forecast
Issued by NWS

Home | Current Version | Previous Version | Text Only | Print | Product List | Glossary On
Versions: 1 2 3 4 5 6 7 8 9 10 11 12 13 14 15 16 17 18 19 20
000
FTUS43 KIND 221730
TAFLAF
TAF
KLAF 221730Z 2218/2318 08012G21KT P6SM OVC020
     FM221900 08011G19KT P6SM OVC015
     FM222100 09009KT P6SM BKN015
     FM230500 10008KT P6SM VCSH OVC008
     FM230600 11008KT 5SM RA OVC008
     FM230900 12007KT 3SM RA OVC003
     FM231100 16006KT 3SM RA OVC003
     FM231200 17006KT P6SM OVC003 WS020/23035KT
     FM231400 23008KT P6SM OVC003
     FM231700 25008KT P6SM BKN010=

USA.gov is the U.S. government's official web portal to all federal, state and local government web resources and services.